sensor_id;sensor_type;location;lat;lon;timestamp;P1;durP1;ratioP1;P2;durP2;ratioP2
48993;SDS011;34804;49.214;12.276;2023-06-14T00:01:56;7.13;;;4.38;;
48993;SDS011;34804;49.214;12.276;2023-06-14T00:04:23;6.47;;;4.47;;
48993;SDS011;34804;49.214;12.276;2023-06-14T00:06:51;8.45;;;4.13;;
48993;SDS011;34804;49.214;12.276;2023-06-14T00:09:18;13.18;;;5.07;;
48993;SDS011;34804;49.214;12.276;2023-06-14T00:11:45;6.72;;;4.45;;
48993;SDS011;34804;49.214;12.276;2023-06-14T00:14:13;9.80;;;4.97;;
48993;SDS011;34804;49.214;12.276;2023-06-14T00:16:40;7.05;;;4.57;;
48993;SDS011;34804;49.214;12.276;2023-06-14T00:19:09;9.48;;;4.72;;
48993;SDS011;34804;49.214;12.276;2023-06-14T00:21:37;7.78;;;4.38;;
48993;SDS011;34804;49.214;12.276;2023-06-14T00:24:04;6.18;;;4.10;;
48993;SDS011;34804;49.214;12.276;2023-06-14T00:26:32;7.30;;;4.00;;
48993;SDS011;34804;49.214;12.276;2023-06-14T00:28:59;7.03;;;4.25;;
48993;SDS011;34804;49.214;12.276;2023-06-14T00:31:26;8.00;;;4.22;;
48993;SDS011;34804;49.214;12.276;2023-06-14T00:33:53;7.05;;;4.72;;
48993;SDS011;34804;49.214;12.276;2023-06-14T00:36:19;10.32;;;4.53;;
48993;SDS011;34804;49.214;12.276;2023-06-14T00:38:46;8.10;;;4.25;;
48993;SDS011;34804;49.214;12.276;2023-06-14T00:41:13;7.45;;;4.20;;
48993;SDS011;34804;49.214;12.276;2023-06-14T00:43:40;7.10;;;3.83;;
48993;SDS011;34804;49.214;12.276;2023-06-14T00:46:07;7.43;;;4.03;;
48993;SDS011;34804;49.214;12.276;2023-06-14T00:48:34;10.05;;;4.30;;
48993;SDS011;34804;49.214;12.276;2023-06-14T00:51:02;6.85;;;4.10;;
48993;SDS011;34804;49.214;12.276;2023-06-14T00:53:31;7.13;;;4.43;;
48993;SDS011;34804;49.214;12.276;2023-06-14T00:56:00;7.47;;;4.18;;
48993;SDS011;34804;49.214;12.276;2023-06-14T00:58:27;7.47;;;4.65;;
48993;SDS011;34804;49.214;12.276;2023-06-14T01:00:54;8.50;;;4.60;;
48993;SDS011;34804;49.214;12.276;2023-06-14T01:03:22;7.82;;;4.60;;
48993;SDS011;34804;49.214;12.276;2023-06-14T01:05:51;7.07;;;4.43;;
48993;SDS011;34804;49.214;12.276;2023-06-14T01:08:31;8.40;;;4.43;;
48993;SDS011;34804;49.214;12.276;2023-06-14T01:11:28;7.72;;;4.53;;
48993;SDS011;34804;49.214;12.276;2023-06-14T01:13:59;6.35;;;4.03;;
48993;SDS011;34804;49.214;12.276;2023-06-14T01:16:29;7.63;;;4.07;;
48993;SDS011;34804;49.214;12.276;2023-06-14T01:18:58;6.53;;;4.55;;
48993;SDS011;34804;49.214;12.276;2023-06-14T01:21:25;6.63;;;4.22;;
48993;SDS011;34804;49.214;12.276;2023-06-14T01:23:54;7.10;;;4.15;;
48993;SDS011;34804;49.214;12.276;2023-06-14T01:26:22;6.65;;;4.13;;
48993;SDS011;34804;49.214;12.276;2023-06-14T01:28:49;8.10;;;3.60;;
48993;SDS011;34804;49.214;12.276;2023-06-14T01:31:19;7.38;;;4.63;;
48993;SDS011;34804;49.214;12.276;2023-06-14T01:33:50;8.15;;;4.57;;
48993;SDS011;34804;49.214;12.276;2023-06-14T01:36:19;7.07;;;3.95;;
48993;SDS011;34804;49.214;12.276;2023-06-14T01:38:47;7.95;;;4.95;;
48993;SDS011;34804;49.214;12.276;2023-06-14T01:41:17;7.47;;;4.20;;
48993;SDS011;34804;49.214;12.276;2023-06-14T01:43:46;7.90;;;4.68;;
48993;SDS011;34804;49.214;12.276;2023-06-14T01:46:16;10.15;;;4.53;;
48993;SDS011;34804;49.214;12.276;2023-06-14T01:48:43;7.43;;;4.15;;
48993;SDS011;34804;49.214;12.276;2023-06-14T01:51:11;9.07;;;4.78;;
48993;SDS011;34804;49.214;12.276;2023-06-14T01:53:37;8.98;;;5.22;;
48993;SDS011;34804;49.214;12.276;2023-06-14T01:56:04;9.73;;;4.50;;
48993;SDS011;34804;49.214;12.276;2023-06-14T01:58:32;10.02;;;4.60;;
48993;SDS011;34804;49.214;12.276;2023-06-14T02:00:59;10.18;;;4.35;;
48993;SDS011;34804;49.214;12.276;2023-06-14T02:03:27;6.82;;;4.50;;
48993;SDS011;34804;49.214;12.276;2023-06-14T02:05:54;8.50;;;4.38;;
48993;SDS011;34804;49.214;12.276;2023-06-14T02:08:22;7.97;;;4.60;;
48993;SDS011;34804;49.214;12.276;2023-06-14T02:10:49;7.32;;;4.35;;
48993;SDS011;34804;49.214;12.276;2023-06-14T02:13:16;7.88;;;4.30;;
48993;SDS011;34804;49.214;12.276;2023-06-14T02:15:43;8.32;;;4.68;;
48993;SDS011;34804;49.214;12.276;2023-06-14T02:18:11;7.45;;;4.10;;
48993;SDS011;34804;49.214;12.276;2023-06-14T02:20:38;6.63;;;4.22;;
48993;SDS011;34804;49.214;12.276;2023-06-14T02:23:07;7.03;;;4.50;;
48993;SDS011;34804;49.214;12.276;2023-06-14T02:25:34;8.95;;;4.65;;
48993;SDS011;34804;49.214;12.276;2023-06-14T02:28:01;7.68;;;4.80;;
48993;SDS011;34804;49.214;12.276;2023-06-14T02:30:28;7.50;;;4.80;;
48993;SDS011;34804;49.214;12.276;2023-06-14T02:32:55;7.18;;;4.65;;
48993;SDS011;34804;49.214;12.276;2023-06-14T02:35:23;9.30;;;4.90;;
48993;SDS011;34804;49.214;12.276;2023-06-14T02:37:52;6.65;;;4.60;;
48993;SDS011;34804;49.214;12.276;2023-06-14T02:40:19;7.50;;;4.82;;
48993;SDS011;34804;49.214;12.276;2023-06-14T02:42:46;9.02;;;5.10;;
48993;SDS011;34804;49.214;12.276;2023-06-14T02:45:13;8.13;;;4.95;;
48993;SDS011;34804;49.214;12.276;2023-06-14T02:47:41;9.20;;;4.38;;
48993;SDS011;34804;49.214;12.276;2023-06-14T02:50:08;8.88;;;4.88;;
48993;SDS011;34804;49.214;12.276;2023-06-14T02:52:35;9.45;;;4.63;;
48993;SDS011;34804;49.214;12.276;2023-06-14T02:55:02;10.70;;;5.55;;
48993;SDS011;34804;49.214;12.276;2023-06-14T02:57:29;9.07;;;5.40;;
48993;SDS011;34804;49.214;12.276;2023-06-14T02:59:56;10.00;;;5.57;;
48993;SDS011;34804;49.214;12.276;2023-06-14T03:02:23;7.90;;;5.10;;
48993;SDS011;34804;49.214;12.276;2023-06-14T03:04:49;10.07;;;4.95;;
48993;SDS011;34804;49.214;12.276;2023-06-14T03:07:16;7.50;;;5.22;;
48993;SDS011;34804;49.214;12.276;2023-06-14T03:09:48;11.00;;;5.60;;
48993;SDS011;34804;49.214;12.276;2023-06-14T03:12:15;8.52;;;5.03;;
48993;SDS011;34804;49.214;12.276;2023-06-14T03:14:42;8.50;;;5.03;;
48993;SDS011;34804;49.214;12.276;2023-06-14T03:17:12;9.55;;;5.57;;
48993;SDS011;34804;49.214;12.276;2023-06-14T03:19:39;7.25;;;4.93;;
48993;SDS011;34804;49.214;12.276;2023-06-14T03:22:07;10.60;;;5.60;;
48993;SDS011;34804;49.214;12.276;2023-06-14T03:24:34;9.57;;;5.20;;
48993;SDS011;34804;49.214;12.276;2023-06-14T03:27:03;10.25;;;5.40;;
48993;SDS011;34804;49.214;12.276;2023-06-14T03:29:30;10.60;;;5.63;;
48993;SDS011;34804;49.214;12.276;2023-06-14T03:31:58;7.57;;;4.97;;
48993;SDS011;34804;49.214;12.276;2023-06-14T03:34:27;11.80;;;5.10;;
48993;SDS011;34804;49.214;12.276;2023-06-14T03:36:53;9.07;;;5.40;;
48993;SDS011;34804;49.214;12.276;2023-06-14T03:39:21;9.93;;;5.25;;
48993;SDS011;34804;49.214;12.276;2023-06-14T03:41:48;8.77;;;5.25;;
48993;SDS011;34804;49.214;12.276;2023-06-14T03:44:15;9.60;;;5.70;;
48993;SDS011;34804;49.214;12.276;2023-06-14T03:46:44;10.57;;;6.30;;
48993;SDS011;34804;49.214;12.276;2023-06-14T03:49:12;11.43;;;6.30;;
48993;SDS011;34804;49.214;12.276;2023-06-14T03:51:39;8.85;;;5.43;;
48993;SDS011;34804;49.214;12.276;2023-06-14T03:54:07;8.65;;;5.57;;
48993;SDS011;34804;49.214;12.276;2023-06-14T03:56:37;8.32;;;5.82;;
48993;SDS011;34804;49.214;12.276;2023-06-14T03:59:04;9.73;;;5.70;;
48993;SDS011;34804;49.214;12.276;2023-06-14T04:01:30;9.80;;;5.50;;
48993;SDS011;34804;49.214;12.276;2023-06-14T04:03:59;9.52;;;5.90;;
48993;SDS011;34804;49.214;12.276;2023-06-14T04:06:28;10.10;;;6.20;;
48993;SDS011;34804;49.214;12.276;2023-06-14T04:08:59;10.85;;;5.95;;
48993;SDS011;34804;49.214;12.276;2023-06-14T04:11:30;8.10;;;5.10;;
48993;SDS011;34804;49.214;12.276;2023-06-14T04:13:58;9.88;;;5.88;;
48993;SDS011;34804;49.214;12.276;2023-06-14T04:16:25;9.60;;;5.35;;
48993;SDS011;34804;49.214;12.276;2023-06-14T04:18:54;15.40;;;6.10;;
48993;SDS011;34804;49.214;12.276;2023-06-14T04:21:21;9.25;;;5.85;;
48993;SDS011;34804;49.214;12.276;2023-06-14T04:23:50;10.20;;;5.82;;
48993;SDS011;34804;49.214;12.276;2023-06-14T04:26:19;8.77;;;5.95;;
48993;SDS011;34804;49.214;12.276;2023-06-14T04:28:49;9.68;;;6.00;;
48993;SDS011;34804;49.214;12.276;2023-06-14T04:31:17;14.13;;;6.50;;
48993;SDS011;34804;49.214;12.276;2023-06-14T04:33:44;13.18;;;5.95;;
48993;SDS011;34804;49.214;12.276;2023-06-14T04:36:13;9.80;;;6.45;;
48993;SDS011;34804;49.214;12.276;2023-06-14T04:38:44;11.05;;;6.72;;
48993;SDS011;34804;49.214;12.276;2023-06-14T04:41:15;9.43;;;6.40;;
48993;SDS011;34804;49.214;12.276;2023-06-14T04:43:42;10.18;;;6.55;;
48993;SDS011;34804;49.214;12.276;2023-06-14T04:46:09;11.88;;;6.75;;
48993;SDS011;34804;49.214;12.276;2023-06-14T04:48:41;10.90;;;7.07;;
48993;SDS011;34804;49.214;12.276;2023-06-14T04:51:09;10.07;;;6.53;;
48993;SDS011;34804;49.214;12.276;2023-06-14T04:53:35;9.02;;;6.70;;
48993;SDS011;34804;49.214;12.276;2023-06-14T04:56:03;8.77;;;6.05;;
48993;SDS011;34804;49.214;12.276;2023-06-14T04:58:30;11.60;;;7.25;;
48993;SDS011;34804;49.214;12.276;2023-06-14T05:00:58;9.95;;;6.82;;
48993;SDS011;34804;49.214;12.276;2023-06-14T05:03:26;10.98;;;6.38;;
48993;SDS011;34804;49.214;12.276;2023-06-14T05:05:54;13.82;;;7.60;;
48993;SDS011;34804;49.214;12.276;2023-06-14T05:08:21;14.38;;;8.05;;
48993;SDS011;34804;49.214;12.276;2023-06-14T05:10:50;13.55;;;7.78;;
48993;SDS011;34804;49.214;12.276;2023-06-14T05:13:17;11.55;;;7.63;;
48993;SDS011;34804;49.214;12.276;2023-06-14T05:15:44;14.75;;;8.05;;
48993;SDS011;34804;49.214;12.276;2023-06-14T05:18:11;13.50;;;8.55;;
48993;SDS011;34804;49.214;12.276;2023-06-14T05:20:40;14.27;;;7.80;;
48993;SDS011;34804;49.214;12.276;2023-06-14T05:23:08;12.25;;;8.23;;
48993;SDS011;34804;49.214;12.276;2023-06-14T05:25:44;14.05;;;8.43;;
48993;SDS011;34804;49.214;12.276;2023-06-14T05:28:11;14.40;;;10.20;;
48993;SDS011;34804;49.214;12.276;2023-06-14T05:30:38;15.57;;;10.15;;
48993;SDS011;34804;49.214;12.276;2023-06-14T05:33:08;16.23;;;10.10;;
48993;SDS011;34804;49.214;12.276;2023-06-14T05:35:35;14.60;;;9.75;;
48993;SDS011;34804;49.214;12.276;2023-06-14T05:38:02;15.52;;;8.48;;
48993;SDS011;34804;49.214;12.276;2023-06-14T05:40:28;14.55;;;7.55;;
48993;SDS011;34804;49.214;12.276;2023-06-14T05:42:55;12.93;;;8.60;;
48993;SDS011;34804;49.214;12.276;2023-06-14T05:45:22;12.88;;;7.22;;
48993;SDS011;34804;49.214;12.276;2023-06-14T05:47:49;11.20;;;6.63;;
48993;SDS011;34804;49.214;12.276;2023-06-14T05:50:16;10.27;;;6.25;;
48993;SDS011;34804;49.214;12.276;2023-06-14T05:52:43;9.73;;;6.35;;
48993;SDS011;34804;49.214;12.276;2023-06-14T05:55:10;14.55;;;6.45;;
48993;SDS011;34804;49.214;12.276;2023-06-14T05:57:39;10.13;;;6.10;;
48993;SDS011;34804;49.214;12.276;2023-06-14T06:00:07;9.93;;;6.22;;
48993;SDS011;34804;49.214;12.276;2023-06-14T06:02:44;9.30;;;6.07;;
48993;SDS011;34804;49.214;12.276;2023-06-14T06:05:11;8.60;;;5.03;;
48993;SDS011;34804;49.214;12.276;2023-06-14T06:07:39;9.52;;;5.80;;
48993;SDS011;34804;49.214;12.276;2023-06-14T06:10:06;10.60;;;5.53;;
48993;SDS011;34804;49.214;12.276;2023-06-14T06:12:34;9.00;;;5.30;;
48993;SDS011;34804;49.214;12.276;2023-06-14T06:15:01;10.13;;;5.70;;
48993;SDS011;34804;49.214;12.276;2023-06-14T06:17:30;7.78;;;5.10;;
48993;SDS011;34804;49.214;12.276;2023-06-14T06:20:16;10.68;;;5.20;;
48993;SDS011;34804;49.214;12.276;2023-06-14T06:22:43;7.70;;;5.07;;
48993;SDS011;34804;49.214;12.276;2023-06-14T06:25:10;7.13;;;4.55;;
48993;SDS011;34804;49.214;12.276;2023-06-14T06:27:37;8.43;;;4.90;;
48993;SDS011;34804;49.214;12.276;2023-06-14T06:30:04;8.50;;;3.97;;
48993;SDS011;34804;49.214;12.276;2023-06-14T06:32:32;5.95;;;3.78;;
48993;SDS011;34804;49.214;12.276;2023-06-14T06:34:58;7.35;;;4.10;;
48993;SDS011;34804;49.214;12.276;2023-06-14T06:37:26;6.35;;;4.18;;
48993;SDS011;34804;49.214;12.276;2023-06-14T06:39:53;7.57;;;4.25;;
48993;SDS011;34804;49.214;12.276;2023-06-14T06:42:20;7.30;;;4.03;;
48993;SDS011;34804;49.214;12.276;2023-06-14T06:44:47;9.40;;;4.22;;
48993;SDS011;34804;49.214;12.276;2023-06-14T06:47:14;7.25;;;4.25;;
48993;SDS011;34804;49.214;12.276;2023-06-14T06:49:41;8.43;;;3.60;;
48993;SDS011;34804;49.214;12.276;2023-06-14T06:52:07;9.48;;;4.20;;
48993;SDS011;34804;49.214;12.276;2023-06-14T06:54:34;6.72;;;4.50;;
48993;SDS011;34804;49.214;12.276;2023-06-14T06:57:01;6.63;;;4.10;;
48993;SDS011;34804;49.214;12.276;2023-06-14T06:59:28;6.97;;;3.92;;
48993;SDS011;34804;49.214;12.276;2023-06-14T07:01:56;6.15;;;3.92;;
48993;SDS011;34804;49.214;12.276;2023-06-14T07:04:23;5.40;;;3.58;;
48993;SDS011;34804;49.214;12.276;2023-06-14T07:06:50;8.68;;;3.88;;
48993;SDS011;34804;49.214;12.276;2023-06-14T07:09:17;8.13;;;4.55;;
48993;SDS011;34804;49.214;12.276;2023-06-14T07:11:46;8.52;;;4.40;;
48993;SDS011;34804;49.214;12.276;2023-06-14T07:14:13;7.38;;;3.83;;
48993;SDS011;34804;49.214;12.276;2023-06-14T07:16:40;8.15;;;4.10;;
48993;SDS011;34804;49.214;12.276;2023-06-14T07:19:07;6.93;;;3.90;;
48993;SDS011;34804;49.214;12.276;2023-06-14T07:21:35;5.53;;;3.40;;
48993;SDS011;34804;49.214;12.276;2023-06-14T07:24:07;8.70;;;3.92;;
48993;SDS011;34804;49.214;12.276;2023-06-14T07:26:34;7.72;;;3.72;;
48993;SDS011;34804;49.214;12.276;2023-06-14T07:29:01;5.60;;;3.53;;
48993;SDS011;34804;49.214;12.276;2023-06-14T07:31:29;7.82;;;3.63;;
48993;SDS011;34804;49.214;12.276;2023-06-14T07:33:56;7.57;;;3.38;;
48993;SDS011;34804;49.214;12.276;2023-06-14T07:36:23;5.85;;;3.80;;
48993;SDS011;34804;49.214;12.276;2023-06-14T07:38:50;6.88;;;3.58;;
48993;SDS011;34804;49.214;12.276;2023-06-14T07:41:17;6.05;;;3.80;;
48993;SDS011;34804;49.214;12.276;2023-06-14T07:43:44;6.93;;;3.53;;
48993;SDS011;34804;49.214;12.276;2023-06-14T07:46:10;6.13;;;3.53;;
48993;SDS011;34804;49.214;12.276;2023-06-14T07:48:37;6.15;;;3.90;;
48993;SDS011;34804;49.214;12.276;2023-06-14T07:51:04;6.78;;;3.40;;
48993;SDS011;34804;49.214;12.276;2023-06-14T07:53:31;6.28;;;3.70;;
48993;SDS011;34804;49.214;12.276;2023-06-14T07:55:58;7.35;;;3.58;;
48993;SDS011;34804;49.214;12.276;2023-06-14T07:58:26;9.95;;;4.00;;
48993;SDS011;34804;49.214;12.276;2023-06-14T08:00:53;6.65;;;3.72;;
48993;SDS011;34804;49.214;12.276;2023-06-14T08:03:20;7.72;;;3.95;;
48993;SDS011;34804;49.214;12.276;2023-06-14T08:05:47;6.28;;;3.78;;
48993;SDS011;34804;49.214;12.276;2023-06-14T08:08:14;7.40;;;3.83;;
48993;SDS011;34804;49.214;12.276;2023-06-14T08:10:41;6.32;;;3.92;;
48993;SDS011;34804;49.214;12.276;2023-06-14T08:13:08;6.00;;;3.30;;
48993;SDS011;34804;49.214;12.276;2023-06-14T08:15:36;8.40;;;3.63;;
48993;SDS011;34804;49.214;12.276;2023-06-14T08:18:03;5.68;;;3.38;;
48993;SDS011;34804;49.214;12.276;2023-06-14T08:20:30;6.65;;;3.53;;
48993;SDS011;34804;49.214;12.276;2023-06-14T08:22:57;5.15;;;3.17;;
48993;SDS011;34804;49.214;12.276;2023-06-14T08:25:24;6.72;;;3.00;;
48993;SDS011;34804;49.214;12.276;2023-06-14T08:27:52;7.90;;;3.40;;
48993;SDS011;34804;49.214;12.276;2023-06-14T08:30:19;6.13;;;3.45;;
48993;SDS011;34804;49.214;12.276;2023-06-14T08:32:46;7.38;;;3.63;;
48993;SDS011;34804;49.214;12.276;2023-06-14T08:35:21;8.35;;;3.28;;
48993;SDS011;34804;49.214;12.276;2023-06-14T08:37:49;5.68;;;3.47;;
48993;SDS011;34804;49.214;12.276;2023-06-14T08:40:20;5.10;;;3.22;;
48993;SDS011;34804;49.214;12.276;2023-06-14T08:42:50;5.72;;;3.58;;
48993;SDS011;34804;49.214;12.276;2023-06-14T08:45:19;8.07;;;3.58;;
48993;SDS011;34804;49.214;12.276;2023-06-14T08:47:53;8.35;;;3.53;;
48993;SDS011;34804;49.214;12.276;2023-06-14T08:50:25;7.63;;;3.70;;
48993;SDS011;34804;49.214;12.276;2023-06-14T08:52:56;8.50;;;3.88;;
48993;SDS011;34804;49.214;12.276;2023-06-14T08:55:30;5.88;;;3.38;;
48993;SDS011;34804;49.214;12.276;2023-06-14T08:58:03;6.53;;;3.35;;
48993;SDS011;34804;49.214;12.276;2023-06-14T09:00:31;8.85;;;3.55;;
48993;SDS011;34804;49.214;12.276;2023-06-14T09:03:00;6.93;;;3.30;;
48993;SDS011;34804;49.214;12.276;2023-06-14T09:05:27;7.95;;;3.85;;
48993;SDS011;34804;49.214;12.276;2023-06-14T09:07:55;6.75;;;3.40;;
48993;SDS011;34804;49.214;12.276;2023-06-14T09:10:23;8.63;;;3.20;;
48993;SDS011;34804;49.214;12.276;2023-06-14T09:12:53;6.22;;;2.97;;
48993;SDS011;34804;49.214;12.276;2023-06-14T09:15:23;5.75;;;3.47;;
48993;SDS011;34804;49.214;12.276;2023-06-14T09:17:49;6.20;;;3.50;;
48993;SDS011;34804;49.214;12.276;2023-06-14T09:20:17;8.15;;;3.70;;
48993;SDS011;34804;49.214;12.276;2023-06-14T09:22:46;6.95;;;3.70;;
48993;SDS011;34804;49.214;12.276;2023-06-14T09:25:13;7.10;;;3.30;;
48993;SDS011;34804;49.214;12.276;2023-06-14T09:28:01;6.25;;;3.83;;
48993;SDS011;34804;49.214;12.276;2023-06-14T09:30:28;8.07;;;3.55;;
48993;SDS011;34804;49.214;12.276;2023-06-14T09:32:55;6.13;;;3.60;;
48993;SDS011;34804;49.214;12.276;2023-06-14T09:35:26;10.05;;;3.83;;
48993;SDS011;34804;49.214;12.276;2023-06-14T09:37:56;7.45;;;3.63;;
48993;SDS011;34804;49.214;12.276;2023-06-14T09:40:23;8.02;;;3.70;;
48993;SDS011;34804;49.214;12.276;2023-06-14T09:42:50;5.25;;;3.17;;
48993;SDS011;34804;49.214;12.276;2023-06-14T09:45:18;5.95;;;3.30;;
48993;SDS011;34804;49.214;12.276;2023-06-14T09:47:51;7.40;;;3.92;;
48993;SDS011;34804;49.214;12.276;2023-06-14T09:50:21;7.95;;;3.70;;
48993;SDS011;34804;49.214;12.276;2023-06-14T09:52:48;6.57;;;3.60;;
48993;SDS011;34804;49.214;12.276;2023-06-14T09:55:18;5.40;;;3.35;;
48993;SDS011;34804;49.214;12.276;2023-06-14T09:57:45;8.68;;;3.60;;
48993;SDS011;34804;49.214;12.276;2023-06-14T10:00:15;5.70;;;3.72;;
48993;SDS011;34804;49.214;12.276;2023-06-14T10:02:46;7.68;;;3.40;;
48993;SDS011;34804;49.214;12.276;2023-06-14T10:05:19;7.00;;;3.40;;
48993;SDS011;34804;49.214;12.276;2023-06-14T10:07:51;9.35;;;3.17;;
48993;SDS011;34804;49.214;12.276;2023-06-14T10:10:39;7.90;;;3.65;;
48993;SDS011;34804;49.214;12.276;2023-06-14T10:13:06;7.55;;;3.70;;
48993;SDS011;34804;49.214;12.276;2023-06-14T10:18:31;5.93;;;3.65;;
48993;SDS011;34804;49.214;12.276;2023-06-14T10:21:22;6.97;;;3.97;;
48993;SDS011;34804;49.214;12.276;2023-06-14T10:24:05;8.30;;;3.42;;
48993;SDS011;34804;49.214;12.276;2023-06-14T10:26:34;8.25;;;3.17;;
48993;SDS011;34804;49.214;12.276;2023-06-14T10:29:06;7.25;;;3.55;;
48993;SDS011;34804;49.214;12.276;2023-06-14T10:31:44;7.20;;;3.35;;
48993;SDS011;34804;49.214;12.276;2023-06-14T10:34:22;7.55;;;3.47;;
48993;SDS011;34804;49.214;12.276;2023-06-14T10:39:47;5.47;;;2.80;;
48993;SDS011;34804;49.214;12.276;2023-06-14T10:42:14;6.28;;;3.28;;
48993;SDS011;34804;49.214;12.276;2023-06-14T10:52:29;6.85;;;2.85;;
48993;SDS011;34804;49.214;12.276;2023-06-14T10:55:02;5.38;;;3.05;;
48993;SDS011;34804;49.214;12.276;2023-06-14T10:57:48;6.45;;;3.00;;
48993;SDS011;34804;49.214;12.276;2023-06-14T11:00:19;8.70;;;3.17;;
48993;SDS011;34804;49.214;12.276;2023-06-14T11:05:51;6.53;;;3.00;;
48993;SDS011;34804;49.214;12.276;2023-06-14T11:13:56;5.55;;;3.10;;
48993;SDS011;34804;49.214;12.276;2023-06-14T11:16:25;6.25;;;3.03;;
48993;SDS011;34804;49.214;12.276;2023-06-14T11:18:54;6.05;;;2.90;;
48993;SDS011;34804;49.214;12.276;2023-06-14T11:21:21;5.55;;;2.97;;
48993;SDS011;34804;49.214;12.276;2023-06-14T11:23:49;6.50;;;3.13;;
48993;SDS011;34804;49.214;12.276;2023-06-14T11:26:24;6.38;;;2.83;;
48993;SDS011;34804;49.214;12.276;2023-06-14T11:28:55;5.90;;;2.97;;
48993;SDS011;34804;49.214;12.276;2023-06-14T11:31:23;7.00;;;2.80;;
48993;SDS011;34804;49.214;12.276;2023-06-14T11:33:55;6.22;;;3.00;;
48993;SDS011;34804;49.214;12.276;2023-06-14T11:36:25;7.80;;;2.88;;
48993;SDS011;34804;49.214;12.276;2023-06-14T11:41:32;5.30;;;2.83;;
48993;SDS011;34804;49.214;12.276;2023-06-14T11:44:06;6.28;;;3.30;;
48993;SDS011;34804;49.214;12.276;2023-06-14T11:46:36;7.15;;;2.78;;
48993;SDS011;34804;49.214;12.276;2023-06-14T11:49:03;5.63;;;3.10;;
48993;SDS011;34804;49.214;12.276;2023-06-14T11:51:34;4.90;;;2.88;;
48993;SDS011;34804;49.214;12.276;2023-06-14T11:54:02;8.65;;;2.72;;
48993;SDS011;34804;49.214;12.276;2023-06-14T11:56:33;8.10;;;3.30;;
48993;SDS011;34804;49.214;12.276;2023-06-14T11:59:00;5.88;;;2.92;;
48993;SDS011;34804;49.214;12.276;2023-06-14T12:01:29;5.90;;;2.72;;
48993;SDS011;34804;49.214;12.276;2023-06-14T12:03:58;5.10;;;2.63;;
48993;SDS011;34804;49.214;12.276;2023-06-14T12:06:27;6.15;;;3.13;;
48993;SDS011;34804;49.214;12.276;2023-06-14T12:08:56;6.65;;;2.95;;
48993;SDS011;34804;49.214;12.276;2023-06-14T12:11:23;4.93;;;2.60;;
48993;SDS011;34804;49.214;12.276;2023-06-14T12:13:57;5.65;;;3.05;;
48993;SDS011;34804;49.214;12.276;2023-06-14T12:16:29;5.82;;;2.75;;
48993;SDS011;34804;49.214;12.276;2023-06-14T12:19:00;5.38;;;2.80;;
48993;SDS011;34804;49.214;12.276;2023-06-14T12:21:39;5.43;;;2.80;;
48993;SDS011;34804;49.214;12.276;2023-06-14T12:24:07;7.18;;;2.92;;
48993;SDS011;34804;49.214;12.276;2023-06-14T12:26:37;5.40;;;2.60;;
48993;SDS011;34804;49.214;12.276;2023-06-14T12:29:05;5.65;;;2.40;;
48993;SDS011;34804;49.214;12.276;2023-06-14T12:31:36;6.00;;;2.55;;
48993;SDS011;34804;49.214;12.276;2023-06-14T12:34:03;6.82;;;2.60;;
48993;SDS011;34804;49.214;12.276;2023-06-14T12:36:33;6.03;;;2.58;;
48993;SDS011;34804;49.214;12.276;2023-06-14T12:39:06;6.53;;;2.92;;
48993;SDS011;34804;49.214;12.276;2023-06-14T12:41:34;4.30;;;2.53;;
48993;SDS011;34804;49.214;12.276;2023-06-14T12:44:03;5.55;;;3.00;;
48993;SDS011;34804;49.214;12.276;2023-06-14T12:46:33;5.43;;;2.80;;
48993;SDS011;34804;49.214;12.276;2023-06-14T12:49:01;4.68;;;2.60;;
48993;SDS011;34804;49.214;12.276;2023-06-14T12:51:32;6.53;;;3.15;;
48993;SDS011;34804;49.214;12.276;2023-06-14T12:53:58;6.75;;;2.90;;
48993;SDS011;34804;49.214;12.276;2023-06-14T12:56:25;5.35;;;2.70;;
48993;SDS011;34804;49.214;12.276;2023-06-14T12:58:52;9.38;;;2.67;;
48993;SDS011;34804;49.214;12.276;2023-06-14T13:01:19;7.90;;;2.72;;
48993;SDS011;34804;49.214;12.276;2023-06-14T13:03:46;8.77;;;2.58;;
48993;SDS011;34804;49.214;12.276;2023-06-14T13:06:14;8.00;;;2.53;;
48993;SDS011;34804;49.214;12.276;2023-06-14T13:08:41;5.75;;;2.72;;
48993;SDS011;34804;49.214;12.276;2023-06-14T13:11:08;5.35;;;2.22;;
48993;SDS011;34804;49.214;12.276;2023-06-14T13:13:35;5.32;;;2.70;;
48993;SDS011;34804;49.214;12.276;2023-06-14T13:16:02;5.80;;;2.33;;
48993;SDS011;34804;49.214;12.276;2023-06-14T13:18:29;9.88;;;2.95;;
48993;SDS011;34804;49.214;12.276;2023-06-14T13:20:55;5.63;;;3.00;;
48993;SDS011;34804;49.214;12.276;2023-06-14T13:23:22;4.80;;;3.03;;
48993;SDS011;34804;49.214;12.276;2023-06-14T13:25:49;5.18;;;2.72;;
48993;SDS011;34804;49.214;12.276;2023-06-14T13:28:17;5.80;;;3.10;;
48993;SDS011;34804;49.214;12.276;2023-06-14T13:30:44;4.95;;;2.50;;
48993;SDS011;34804;49.214;12.276;2023-06-14T13:33:11;4.63;;;2.65;;
48993;SDS011;34804;49.214;12.276;2023-06-14T13:35:39;7.35;;;2.85;;
48993;SDS011;34804;49.214;12.276;2023-06-14T13:38:06;5.28;;;3.20;;
48993;SDS011;34804;49.214;12.276;2023-06-14T13:40:32;5.22;;;2.60;;
48993;SDS011;34804;49.214;12.276;2023-06-14T13:42:59;7.40;;;3.08;;
48993;SDS011;34804;49.214;12.276;2023-06-14T13:45:26;8.27;;;3.15;;
48993;SDS011;34804;49.214;12.276;2023-06-14T13:47:53;5.20;;;3.00;;
48993;SDS011;34804;49.214;12.276;2023-06-14T13:50:21;6.50;;;2.78;;
48993;SDS011;34804;49.214;12.276;2023-06-14T13:52:48;5.82;;;3.08;;
48993;SDS011;34804;49.214;12.276;2023-06-14T13:55:14;8.60;;;3.15;;
48993;SDS011;34804;49.214;12.276;2023-06-14T13:57:41;8.93;;;2.63;;
48993;SDS011;34804;49.214;12.276;2023-06-14T14:00:08;6.18;;;2.60;;
48993;SDS011;34804;49.214;12.276;2023-06-14T14:02:36;7.93;;;2.80;;
48993;SDS011;34804;49.214;12.276;2023-06-14T14:05:03;6.25;;;2.67;;
48993;SDS011;34804;49.214;12.276;2023-06-14T14:07:31;6.57;;;2.85;;
48993;SDS011;34804;49.214;12.276;2023-06-14T14:09:58;5.97;;;2.88;;
48993;SDS011;34804;49.214;12.276;2023-06-14T14:12:25;8.02;;;2.92;;
48993;SDS011;34804;49.214;12.276;2023-06-14T14:14:51;4.82;;;2.88;;
48993;SDS011;34804;49.214;12.276;2023-06-14T14:17:18;5.88;;;2.90;;
48993;SDS011;34804;49.214;12.276;2023-06-14T14:19:46;8.50;;;2.88;;
48993;SDS011;34804;49.214;12.276;2023-06-14T14:22:13;5.35;;;2.60;;
48993;SDS011;34804;49.214;12.276;2023-06-14T14:24:39;6.95;;;2.63;;
48993;SDS011;34804;49.214;12.276;2023-06-14T14:27:06;7.85;;;2.80;;
48993;SDS011;34804;49.214;12.276;2023-06-14T14:29:34;4.70;;;2.80;;
48993;SDS011;34804;49.214;12.276;2023-06-14T14:32:02;6.00;;;2.45;;
48993;SDS011;34804;49.214;12.276;2023-06-14T14:34:29;4.60;;;2.67;;
48993;SDS011;34804;49.214;12.276;2023-06-14T14:36:56;4.78;;;2.70;;
48993;SDS011;34804;49.214;12.276;2023-06-14T14:39:23;6.70;;;3.47;;
48993;SDS011;34804;49.214;12.276;2023-06-14T14:41:50;6.80;;;3.67;;
48993;SDS011;34804;49.214;12.276;2023-06-14T14:44:17;6.63;;;2.97;;
48993;SDS011;34804;49.214;12.276;2023-06-14T14:46:45;5.78;;;2.70;;
48993;SDS011;34804;49.214;12.276;2023-06-14T14:49:12;8.52;;;2.90;;
48993;SDS011;34804;49.214;12.276;2023-06-14T14:51:39;4.88;;;2.58;;
48993;SDS011;34804;49.214;12.276;2023-06-14T14:54:06;4.80;;;2.60;;
48993;SDS011;34804;49.214;12.276;2023-06-14T14:56:33;4.18;;;2.30;;
48993;SDS011;34804;49.214;12.276;2023-06-14T14:59:04;4.63;;;2.42;;
48993;SDS011;34804;49.214;12.276;2023-06-14T15:01:31;5.10;;;2.70;;
48993;SDS011;34804;49.214;12.276;2023-06-14T15:03:58;5.30;;;2.65;;
48993;SDS011;34804;49.214;12.276;2023-06-14T15:06:26;6.97;;;2.47;;